Accueil
METAR-TAF:

METAR-TAF

Aéroports :

Goeree Le, Pays-Bas

Plate-forme pétrolière

latitude: 51-55-33N, longitude: 3-40-12E, altitude: 19 m

Observation

Le bulletin a été fait il y a 31 minutes, à 20:55 UTC
Vent 14 kt de nord avec des rafales jusqu'à 18 kt
Température 8°C
Humidité 57%
Pression 1017 hPa
Visibilité 10 km ou plus

METAR: EHSC 262055Z AUTO 01014G18KT 9999 ///////// 08/00 Q1017 W10/H14

Heure: 23:26 (21:26 UTC)


TAF: absent

Observations et prévisions météorologiques de plus de 4000 aéroports (messages METAR et TAF).

Les stations disponibles sont représentées par des disques jaunes et rouges sur la carte.

Passer la souris dessus pour voir le nom de la station.

Cliquer dessus pour voir les observations et prévisions météorologiques.

Pour changer de carte: cliquez sur les boutons verts avec une croix noire pour zoomer, sur le bouton vert avec un tiret pour effectuer un zoom arrière, ou sur les flèches vertes pour les cartes adjacentes.


METAR-TAF: